sensor_id;sensor_type;location;lat;lon;timestamp;P1;durP1;ratioP1;P2;durP2;ratioP2
17496;SDS011;62150;43.582;1.456;2024-02-26T04:38:40;8.27;;;1.90;;
17496;SDS011;62150;43.582;1.456;2024-02-26T04:41:08;6.77;;;1.93;;
17496;SDS011;62150;43.582;1.456;2024-02-26T04:43:35;4.47;;;1.50;;
17496;SDS011;62150;43.582;1.456;2024-02-26T04:46:06;5.13;;;1.50;;
17496;SDS011;62150;43.582;1.456;2024-02-26T04:48:34;3.60;;;1.30;;
17496;SDS011;62150;43.582;1.456;2024-02-26T04:51:02;5.40;;;2.03;;
17496;SDS011;62150;43.582;1.456;2024-02-26T04:53:30;3.97;;;1.60;;
17496;SDS011;62150;43.582;1.456;2024-02-26T04:55:59;5.87;;;1.60;;
17496;SDS011;62150;43.582;1.456;2024-02-26T04:58:26;3.87;;;1.50;;
17496;SDS011;62150;43.582;1.456;2024-02-26T05:00:54;7.47;;;1.67;;
17496;SDS011;62150;43.582;1.456;2024-02-26T05:03:22;5.23;;;1.40;;
17496;SDS011;62150;43.582;1.456;2024-02-26T05:05:49;6.07;;;1.50;;
17496;SDS011;62150;43.582;1.456;2024-02-26T05:08:17;2.50;;;1.33;;
17496;SDS011;62150;43.582;1.456;2024-02-26T05:10:44;6.50;;;1.60;;
17496;SDS011;62150;43.582;1.456;2024-02-26T05:13:13;4.67;;;1.40;;
17496;SDS011;62150;43.582;1.456;2024-02-26T05:15:43;2.53;;;1.37;;
17496;SDS011;62150;43.582;1.456;2024-02-26T05:18:14;4.50;;;1.30;;
17496;SDS011;62150;43.582;1.456;2024-02-26T05:20:41;3.70;;;1.27;;
17496;SDS011;62150;43.582;1.456;2024-02-26T05:23:09;3.27;;;1.20;;
17496;SDS011;62150;43.582;1.456;2024-02-26T05:25:37;3.43;;;1.33;;
17496;SDS011;62150;43.582;1.456;2024-02-26T05:28:04;3.87;;;1.30;;
17496;SDS011;62150;43.582;1.456;2024-02-26T05:30:33;5.27;;;1.60;;
17496;SDS011;62150;43.582;1.456;2024-02-26T05:33:01;5.50;;;1.67;;
17496;SDS011;62150;43.582;1.456;2024-02-26T05:35:28;5.00;;;1.40;;
17496;SDS011;62150;43.582;1.456;2024-02-26T05:37:56;4.50;;;1.60;;
17496;SDS011;62150;43.582;1.456;2024-02-26T05:40:23;3.80;;;1.43;;
17496;SDS011;62150;43.582;1.456;2024-02-26T05:42:51;5.07;;;1.50;;
17496;SDS011;62150;43.582;1.456;2024-02-26T05:45:18;5.40;;;1.50;;
17496;SDS011;62150;43.582;1.456;2024-02-26T05:47:48;4.63;;;1.50;;
17496;SDS011;62150;43.582;1.456;2024-02-26T05:50:15;5.93;;;1.70;;
17496;SDS011;62150;43.582;1.456;2024-02-26T05:52:43;3.93;;;1.80;;
17496;SDS011;62150;43.582;1.456;2024-02-26T05:55:10;6.90;;;1.80;;
17496;SDS011;62150;43.582;1.456;2024-02-26T05:57:38;2.33;;;1.63;;
17496;SDS011;62150;43.582;1.456;2024-02-26T06:00:06;4.00;;;1.50;;
17496;SDS011;62150;43.582;1.456;2024-02-26T06:02:34;3.37;;;1.40;;
17496;SDS011;62150;43.582;1.456;2024-02-26T06:05:04;4.10;;;1.70;;
17496;SDS011;62150;43.582;1.456;2024-02-26T06:07:32;2.17;;;1.73;;
17496;SDS011;62150;43.582;1.456;2024-02-26T06:10:00;3.77;;;1.57;;
17496;SDS011;62150;43.582;1.456;2024-02-26T06:12:27;6.13;;;1.60;;
17496;SDS011;62150;43.582;1.456;2024-02-26T06:14:55;4.40;;;1.50;;
17496;SDS011;62150;43.582;1.456;2024-02-26T06:17:26;7.30;;;1.57;;
17496;SDS011;62150;43.582;1.456;2024-02-26T06:19:54;3.60;;;1.40;;
17496;SDS011;62150;43.582;1.456;2024-02-26T06:22:22;3.80;;;1.40;;
17496;SDS011;62150;43.582;1.456;2024-02-26T06:24:50;3.37;;;1.33;;
17496;SDS011;62150;43.582;1.456;2024-02-26T06:27:17;6.80;;;1.57;;
17496;SDS011;62150;43.582;1.456;2024-02-26T06:29:46;4.23;;;1.50;;
17496;SDS011;62150;43.582;1.456;2024-02-26T06:32:14;3.13;;;1.50;;
17496;SDS011;62150;43.582;1.456;2024-02-26T06:34:41;3.63;;;1.33;;
17496;SDS011;62150;43.582;1.456;2024-02-26T06:37:09;3.90;;;1.43;;
17496;SDS011;62150;43.582;1.456;2024-02-26T06:39:38;4.83;;;1.30;;
17496;SDS011;62150;43.582;1.456;2024-02-26T06:42:06;4.20;;;1.53;;
17496;SDS011;62150;43.582;1.456;2024-02-26T06:44:33;3.67;;;1.40;;
17496;SDS011;62150;43.582;1.456;2024-02-26T06:47:01;4.57;;;1.37;;
17496;SDS011;62150;43.582;1.456;2024-02-26T06:49:29;4.30;;;1.40;;
17496;SDS011;62150;43.582;1.456;2024-02-26T06:51:56;2.33;;;1.10;;
17496;SDS011;62150;43.582;1.456;2024-02-26T06:54:24;2.33;;;1.23;;
17496;SDS011;62150;43.582;1.456;2024-02-26T06:56:53;2.63;;;1.10;;
17496;SDS011;62150;43.582;1.456;2024-02-26T06:59:20;2.77;;;1.17;;
17496;SDS011;62150;43.582;1.456;2024-02-26T07:01:48;1.97;;;1.40;;
17496;SDS011;62150;43.582;1.456;2024-02-26T07:04:16;2.60;;;1.43;;
17496;SDS011;62150;43.582;1.456;2024-02-26T07:06:43;3.10;;;1.30;;
17496;SDS011;62150;43.582;1.456;2024-02-26T07:09:12;5.20;;;1.40;;
17496;SDS011;62150;43.582;1.456;2024-02-26T07:11:40;3.93;;;1.33;;
17496;SDS011;62150;43.582;1.456;2024-02-26T07:14:10;4.43;;;1.50;;
17496;SDS011;62150;43.582;1.456;2024-02-26T07:16:38;5.93;;;2.00;;
17496;SDS011;62150;43.582;1.456;2024-02-26T07:19:06;3.50;;;1.50;;
17496;SDS011;62150;43.582;1.456;2024-02-26T07:21:33;2.53;;;1.20;;
17496;SDS011;62150;43.582;1.456;2024-02-26T07:24:01;1.27;;;1.20;;
17496;SDS011;62150;43.582;1.456;2024-02-26T07:26:28;2.63;;;1.33;;
17496;SDS011;62150;43.582;1.456;2024-02-26T07:28:56;4.17;;;1.40;;
17496;SDS011;62150;43.582;1.456;2024-02-26T07:31:26;5.10;;;1.40;;
17496;SDS011;62150;43.582;1.456;2024-02-26T07:33:54;6.70;;;1.60;;
17496;SDS011;62150;43.582;1.456;2024-02-26T07:36:21;9.53;;;2.00;;
17496;SDS011;62150;43.582;1.456;2024-02-26T07:38:49;6.97;;;1.70;;
17496;SDS011;62150;43.582;1.456;2024-02-26T07:41:17;4.33;;;1.57;;
17496;SDS011;62150;43.582;1.456;2024-02-26T07:43:44;4.53;;;1.53;;
17496;SDS011;62150;43.582;1.456;2024-02-26T07:46:12;3.17;;;1.23;;
17496;SDS011;62150;43.582;1.456;2024-02-26T07:48:41;3.23;;;1.57;;
17496;SDS011;62150;43.582;1.456;2024-02-26T07:51:11;3.60;;;1.50;;
17496;SDS011;62150;43.582;1.456;2024-02-26T07:53:39;3.30;;;1.40;;
17496;SDS011;62150;43.582;1.456;2024-02-26T07:56:07;4.27;;;1.50;;
17496;SDS011;62150;43.582;1.456;2024-02-26T07:58:35;5.80;;;1.53;;
17496;SDS011;62150;43.582;1.456;2024-02-26T08:01:02;3.60;;;1.50;;
17496;SDS011;62150;43.582;1.456;2024-02-26T08:03:30;6.77;;;1.60;;
17496;SDS011;62150;43.582;1.456;2024-02-26T08:05:59;5.03;;;1.70;;
17496;SDS011;62150;43.582;1.456;2024-02-26T08:08:27;3.97;;;1.40;;
17496;SDS011;62150;43.582;1.456;2024-02-26T08:10:55;4.20;;;1.50;;
17496;SDS011;62150;43.582;1.456;2024-02-26T08:13:22;5.53;;;1.60;;
17496;SDS011;62150;43.582;1.456;2024-02-26T08:15:50;5.47;;;1.50;;
17496;SDS011;62150;43.582;1.456;2024-02-26T08:18:17;4.10;;;1.50;;
17496;SDS011;62150;43.582;1.456;2024-02-26T08:20:45;4.10;;;1.50;;
17496;SDS011;62150;43.582;1.456;2024-02-26T08:23:15;5.10;;;1.40;;
17496;SDS011;62150;43.582;1.456;2024-02-26T08:25:43;4.87;;;1.63;;
17496;SDS011;62150;43.582;1.456;2024-02-26T08:28:10;4.30;;;1.40;;
17496;SDS011;62150;43.582;1.456;2024-02-26T08:30:38;4.33;;;1.30;;
17496;SDS011;62150;43.582;1.456;2024-02-26T08:33:05;3.80;;;1.40;;
17496;SDS011;62150;43.582;1.456;2024-02-26T08:35:33;5.63;;;1.40;;
17496;SDS011;62150;43.582;1.456;2024-02-26T08:38:00;4.23;;;1.50;;
17496;SDS011;62150;43.582;1.456;2024-02-26T08:40:30;2.87;;;1.40;;
17496;SDS011;62150;43.582;1.456;2024-02-26T08:42:58;6.33;;;1.60;;
17496;SDS011;62150;43.582;1.456;2024-02-26T08:45:26;7.80;;;1.90;;
17496;SDS011;62150;43.582;1.456;2024-02-26T08:47:53;6.73;;;1.47;;
17496;SDS011;62150;43.582;1.456;2024-02-26T08:50:21;5.37;;;1.40;;
17496;SDS011;62150;43.582;1.456;2024-02-26T08:52:48;6.40;;;1.50;;
17496;SDS011;62150;43.582;1.456;2024-02-26T08:55:18;9.43;;;2.00;;
17496;SDS011;62150;43.582;1.456;2024-02-26T08:57:47;5.37;;;1.60;;
17496;SDS011;62150;43.582;1.456;2024-02-26T09:00:15;6.33;;;1.60;;
17496;SDS011;62150;43.582;1.456;2024-02-26T09:02:45;5.23;;;1.50;;
17496;SDS011;62150;43.582;1.456;2024-02-26T09:05:13;5.87;;;1.40;;
17496;SDS011;62150;43.582;1.456;2024-02-26T09:07:41;7.73;;;1.70;;
17496;SDS011;62150;43.582;1.456;2024-02-26T09:10:09;5.17;;;1.63;;
17496;SDS011;62150;43.582;1.456;2024-02-26T09:12:36;6.00;;;1.60;;
17496;SDS011;62150;43.582;1.456;2024-02-26T09:15:06;6.30;;;1.60;;
17496;SDS011;62150;43.582;1.456;2024-02-26T09:17:34;8.43;;;1.77;;
17496;SDS011;62150;43.582;1.456;2024-02-26T09:20:02;6.43;;;1.70;;
17496;SDS011;62150;43.582;1.456;2024-02-26T09:22:31;4.40;;;1.50;;
17496;SDS011;62150;43.582;1.456;2024-02-26T09:24:59;5.20;;;1.40;;
17496;SDS011;62150;43.582;1.456;2024-02-26T09:27:27;7.10;;;1.60;;
17496;SDS011;62150;43.582;1.456;2024-02-26T09:29:55;4.77;;;1.53;;
17496;SDS011;62150;43.582;1.456;2024-02-26T09:32:24;4.33;;;1.50;;
17496;SDS011;62150;43.582;1.456;2024-02-26T09:34:52;4.00;;;1.40;;
17496;SDS011;62150;43.582;1.456;2024-02-26T09:37:19;4.53;;;1.20;;
17496;SDS011;62150;43.582;1.456;2024-02-26T09:39:47;4.60;;;1.50;;
17496;SDS011;62150;43.582;1.456;2024-02-26T09:42:15;6.50;;;1.60;;
17496;SDS011;62150;43.582;1.456;2024-02-26T09:44:45;7.47;;;1.60;;
17496;SDS011;62150;43.582;1.456;2024-02-26T09:47:17;3.67;;;1.67;;
17496;SDS011;62150;43.582;1.456;2024-02-26T09:49:47;2.53;;;1.33;;
17496;SDS011;62150;43.582;1.456;2024-02-26T09:52:16;2.43;;;1.47;;
17496;SDS011;62150;43.582;1.456;2024-02-26T09:54:46;3.57;;;1.50;;
17496;SDS011;62150;43.582;1.456;2024-02-26T09:57:15;4.57;;;1.60;;
17496;SDS011;62150;43.582;1.456;2024-02-26T09:59:43;3.30;;;1.43;;
17496;SDS011;62150;43.582;1.456;2024-02-26T10:02:13;2.73;;;1.30;;
17496;SDS011;62150;43.582;1.456;2024-02-26T10:04:42;2.67;;;1.30;;
17496;SDS011;62150;43.582;1.456;2024-02-26T10:07:12;3.77;;;1.27;;
17496;SDS011;62150;43.582;1.456;2024-02-26T10:09:40;3.30;;;1.33;;
17496;SDS011;62150;43.582;1.456;2024-02-26T10:12:08;3.27;;;1.17;;
17496;SDS011;62150;43.582;1.456;2024-02-26T10:14:38;4.67;;;1.50;;
17496;SDS011;62150;43.582;1.456;2024-02-26T10:17:06;3.20;;;1.43;;
17496;SDS011;62150;43.582;1.456;2024-02-26T10:19:35;2.20;;;1.30;;
17496;SDS011;62150;43.582;1.456;2024-02-26T10:22:02;6.17;;;1.40;;
17496;SDS011;62150;43.582;1.456;2024-02-26T10:24:31;4.47;;;1.27;;
17496;SDS011;62150;43.582;1.456;2024-02-26T10:26:59;2.40;;;1.23;;
17496;SDS011;62150;43.582;1.456;2024-02-26T10:29:27;5.17;;;1.43;;
17496;SDS011;62150;43.582;1.456;2024-02-26T10:31:55;4.80;;;1.50;;
17496;SDS011;62150;43.582;1.456;2024-02-26T10:34:23;2.93;;;1.23;;
17496;SDS011;62150;43.582;1.456;2024-02-26T10:36:51;2.93;;;1.40;;
17496;SDS011;62150;43.582;1.456;2024-02-26T10:39:18;2.77;;;1.50;;
17496;SDS011;62150;43.582;1.456;2024-02-26T10:41:47;2.10;;;1.20;;
17496;SDS011;62150;43.582;1.456;2024-02-26T10:44:14;3.20;;;1.20;;
17496;SDS011;62150;43.582;1.456;2024-02-26T10:46:42;5.40;;;1.40;;
17496;SDS011;62150;43.582;1.456;2024-02-26T10:49:13;3.73;;;1.40;;
17496;SDS011;62150;43.582;1.456;2024-02-26T10:51:43;4.67;;;1.40;;
17496;SDS011;62150;43.582;1.456;2024-02-26T10:54:15;7.33;;;1.67;;
17496;SDS011;62150;43.582;1.456;2024-02-26T10:56:43;3.87;;;1.40;;
17496;SDS011;62150;43.582;1.456;2024-02-26T10:59:13;3.27;;;1.20;;
17496;SDS011;62150;43.582;1.456;2024-02-26T11:01:45;4.73;;;1.20;;
17496;SDS011;62150;43.582;1.456;2024-02-26T11:04:14;9.20;;;1.80;;
17496;SDS011;62150;43.582;1.456;2024-02-26T11:06:42;5.97;;;1.40;;
17496;SDS011;62150;43.582;1.456;2024-02-26T11:09:11;4.40;;;1.50;;
17496;SDS011;62150;43.582;1.456;2024-02-26T11:11:40;4.20;;;1.30;;
17496;SDS011;62150;43.582;1.456;2024-02-26T11:14:08;2.43;;;1.30;;
17496;SDS011;62150;43.582;1.456;2024-02-26T11:16:40;3.30;;;1.20;;
17496;SDS011;62150;43.582;1.456;2024-02-26T11:19:08;3.50;;;1.50;;
17496;SDS011;62150;43.582;1.456;2024-02-26T11:21:37;5.27;;;1.30;;
17496;SDS011;62150;43.582;1.456;2024-02-26T11:24:06;2.40;;;1.20;;
17496;SDS011;62150;43.582;1.456;2024-02-26T11:26:38;1.40;;;1.10;;
17496;SDS011;62150;43.582;1.456;2024-02-26T11:29:10;2.40;;;1.30;;
17496;SDS011;62150;43.582;1.456;2024-02-26T11:31:41;3.33;;;1.20;;
17496;SDS011;62150;43.582;1.456;2024-02-26T11:34:09;2.30;;;1.20;;
17496;SDS011;62150;43.582;1.456;2024-02-26T11:36:38;3.90;;;1.17;;
17496;SDS011;62150;43.582;1.456;2024-02-26T11:39:07;3.63;;;1.20;;
17496;SDS011;62150;43.582;1.456;2024-02-26T11:41:37;1.83;;;1.20;;
17496;SDS011;62150;43.582;1.456;2024-02-26T11:44:05;2.47;;;1.20;;
17496;SDS011;62150;43.582;1.456;2024-02-26T11:46:33;5.10;;;1.17;;
17496;SDS011;62150;43.582;1.456;2024-02-26T11:51:59;2.80;;;1.33;;
17496;SDS011;62150;43.582;1.456;2024-02-26T11:54:44;4.93;;;1.30;;
17496;SDS011;62150;43.582;1.456;2024-02-26T11:57:19;3.90;;;1.47;;
17496;SDS011;62150;43.582;1.456;2024-02-26T11:59:48;3.63;;;1.50;;
17496;SDS011;62150;43.582;1.456;2024-02-26T12:05:14;5.33;;;1.97;;
17496;SDS011;62150;43.582;1.456;2024-02-26T12:07:44;2.90;;;1.10;;
17496;SDS011;62150;43.582;1.456;2024-02-26T12:10:14;3.43;;;1.33;;
17496;SDS011;62150;43.582;1.456;2024-02-26T12:12:43;2.73;;;1.20;;
17496;SDS011;62150;43.582;1.456;2024-02-26T12:15:12;3.50;;;1.20;;
17496;SDS011;62150;43.582;1.456;2024-02-26T12:17:47;2.87;;;1.30;;
17496;SDS011;62150;43.582;1.456;2024-02-26T12:20:20;9.13;;;1.90;;
17496;SDS011;62150;43.582;1.456;2024-02-26T12:22:49;4.37;;;1.37;;
17496;SDS011;62150;43.582;1.456;2024-02-26T12:27:49;1.97;;;1.13;;
17496;SDS011;62150;43.582;1.456;2024-02-26T12:30:17;4.47;;;1.40;;
17496;SDS011;62150;43.582;1.456;2024-02-26T12:32:46;2.27;;;1.17;;
17496;SDS011;62150;43.582;1.456;2024-02-26T12:35:14;2.73;;;1.30;;
17496;SDS011;62150;43.582;1.456;2024-02-26T12:37:44;2.37;;;1.00;;
17496;SDS011;62150;43.582;1.456;2024-02-26T12:40:12;4.43;;;1.20;;
17496;SDS011;62150;43.582;1.456;2024-02-26T12:42:40;3.50;;;1.20;;
17496;SDS011;62150;43.582;1.456;2024-02-26T12:45:09;2.67;;;1.10;;
17496;SDS011;62150;43.582;1.456;2024-02-26T12:47:37;2.17;;;1.27;;
17496;SDS011;62150;43.582;1.456;2024-02-26T12:50:06;5.33;;;1.40;;
17496;SDS011;62150;43.582;1.456;2024-02-26T12:52:35;2.87;;;1.10;;
17496;SDS011;62150;43.582;1.456;2024-02-26T12:55:06;2.83;;;1.30;;
17496;SDS011;62150;43.582;1.456;2024-02-26T12:57:35;2.60;;;1.20;;
17496;SDS011;62150;43.582;1.456;2024-02-26T13:00:05;1.60;;;1.17;;
17496;SDS011;62150;43.582;1.456;2024-02-26T13:02:34;3.00;;;1.20;;
17496;SDS011;62150;43.582;1.456;2024-02-26T13:05:03;3.20;;;1.23;;
17496;SDS011;62150;43.582;1.456;2024-02-26T13:07:33;2.67;;;1.07;;
17496;SDS011;62150;43.582;1.456;2024-02-26T13:10:08;0.97;;;0.97;;
17496;SDS011;62150;43.582;1.456;2024-02-26T13:12:38;3.80;;;1.20;;
17496;SDS011;62150;43.582;1.456;2024-02-26T13:15:13;1.37;;;1.10;;
17496;SDS011;62150;43.582;1.456;2024-02-26T13:17:42;1.97;;;1.10;;
17496;SDS011;62150;43.582;1.456;2024-02-26T13:20:09;1.77;;;1.10;;
17496;SDS011;62150;43.582;1.456;2024-02-26T13:22:37;2.10;;;1.13;;
17496;SDS011;62150;43.582;1.456;2024-02-26T13:25:05;1.93;;;1.10;;
17496;SDS011;62150;43.582;1.456;2024-02-26T13:27:34;1.97;;;1.00;;
17496;SDS011;62150;43.582;1.456;2024-02-26T13:30:03;2.23;;;1.10;;
17496;SDS011;62150;43.582;1.456;2024-02-26T13:32:32;2.03;;;1.00;;
17496;SDS011;62150;43.582;1.456;2024-02-26T13:35:07;1.80;;;0.87;;
17496;SDS011;62150;43.582;1.456;2024-02-26T13:37:36;2.07;;;0.90;;
17496;SDS011;62150;43.582;1.456;2024-02-26T13:40:04;3.07;;;1.20;;
17496;SDS011;62150;43.582;1.456;2024-02-26T13:42:34;1.77;;;1.13;;
17496;SDS011;62150;43.582;1.456;2024-02-26T13:45:03;2.87;;;1.60;;
17496;SDS011;62150;43.582;1.456;2024-02-26T13:47:32;3.13;;;1.10;;
17496;SDS011;62150;43.582;1.456;2024-02-26T13:49:59;1.53;;;0.90;;
17496;SDS011;62150;43.582;1.456;2024-02-26T13:52:27;2.50;;;1.17;;
17496;SDS011;62150;43.582;1.456;2024-02-26T13:54:57;4.73;;;1.20;;
17496;SDS011;62150;43.582;1.456;2024-02-26T13:57:26;1.90;;;0.90;;
17496;SDS011;62150;43.582;1.456;2024-02-26T13:59:54;4.53;;;1.07;;
17496;SDS011;62150;43.582;1.456;2024-02-26T14:02:21;1.43;;;1.10;;
17496;SDS011;62150;43.582;1.456;2024-02-26T14:04:49;4.27;;;1.40;;
17496;SDS011;62150;43.582;1.456;2024-02-26T14:07:16;2.57;;;1.20;;
17496;SDS011;62150;43.582;1.456;2024-02-26T14:09:44;3.40;;;1.10;;
17496;SDS011;62150;43.582;1.456;2024-02-26T14:12:12;5.30;;;1.30;;
17496;SDS011;62150;43.582;1.456;2024-02-26T14:14:40;4.47;;;1.40;;
17496;SDS011;62150;43.582;1.456;2024-02-26T14:17:08;3.33;;;1.30;;
17496;SDS011;62150;43.582;1.456;2024-02-26T14:19:36;1.10;;;1.03;;
17496;SDS011;62150;43.582;1.456;2024-02-26T14:22:04;2.20;;;1.20;;
17496;SDS011;62150;43.582;1.456;2024-02-26T14:24:32;2.00;;;1.00;;
17496;SDS011;62150;43.582;1.456;2024-02-26T14:27:01;1.13;;;1.10;;
17496;SDS011;62150;43.582;1.456;2024-02-26T14:29:30;1.47;;;0.87;;
17496;SDS011;62150;43.582;1.456;2024-02-26T14:31:59;3.60;;;1.00;;
17496;SDS011;62150;43.582;1.456;2024-02-26T14:34:26;0.97;;;0.70;;
17496;SDS011;62150;43.582;1.456;2024-02-26T14:36:54;1.87;;;0.90;;
17496;SDS011;62150;43.582;1.456;2024-02-26T14:39:21;2.40;;;1.17;;
17496;SDS011;62150;43.582;1.456;2024-02-26T14:41:49;3.97;;;1.10;;
17496;SDS011;62150;43.582;1.456;2024-02-26T14:44:17;0.77;;;0.73;;
17496;SDS011;62150;43.582;1.456;2024-02-26T14:46:44;1.60;;;0.90;;
17496;SDS011;62150;43.582;1.456;2024-02-26T14:49:13;2.20;;;0.90;;
17496;SDS011;62150;43.582;1.456;2024-02-26T14:51:41;1.60;;;1.10;;
17496;SDS011;62150;43.582;1.456;2024-02-26T14:54:09;2.27;;;1.00;;
17496;SDS011;62150;43.582;1.456;2024-02-26T14:56:38;2.53;;;1.30;;
17496;SDS011;62150;43.582;1.456;2024-02-26T14:59:05;2.60;;;1.20;;
17496;SDS011;62150;43.582;1.456;2024-02-26T15:01:33;1.20;;;1.10;;
17496;SDS011;62150;43.582;1.456;2024-02-26T15:04:01;0.90;;;0.90;;
17496;SDS011;62150;43.582;1.456;2024-02-26T15:06:30;1.47;;;1.10;;
17496;SDS011;62150;43.582;1.456;2024-02-26T15:09:00;1.30;;;0.90;;
17496;SDS011;62150;43.582;1.456;2024-02-26T15:11:28;1.00;;;1.00;;
17496;SDS011;62150;43.582;1.456;2024-02-26T15:13:56;2.63;;;1.10;;
17496;SDS011;62150;43.582;1.456;2024-02-26T15:16:23;1.33;;;0.93;;
17496;SDS011;62150;43.582;1.456;2024-02-26T15:18:51;1.93;;;0.80;;
17496;SDS011;62150;43.582;1.456;2024-02-26T15:21:19;1.23;;;0.97;;
17496;SDS011;62150;43.582;1.456;2024-02-26T15:23:47;1.17;;;0.90;;
17496;SDS011;62150;43.582;1.456;2024-02-26T15:26:15;1.33;;;1.00;;
17496;SDS011;62150;43.582;1.456;2024-02-26T15:28:43;3.87;;;1.47;;
17496;SDS011;62150;43.582;1.456;2024-02-26T15:31:11;1.77;;;1.10;;
17496;SDS011;62150;43.582;1.456;2024-02-26T15:33:38;2.17;;;1.13;;
17496;SDS011;62150;43.582;1.456;2024-02-26T15:36:07;1.97;;;0.90;;
17496;SDS011;62150;43.582;1.456;2024-02-26T15:38:35;0.90;;;0.90;;
17496;SDS011;62150;43.582;1.456;2024-02-26T15:41:11;1.20;;;1.20;;
17496;SDS011;62150;43.582;1.456;2024-02-26T15:43:39;1.10;;;1.00;;
17496;SDS011;62150;43.582;1.456;2024-02-26T15:46:07;1.20;;;1.10;;
17496;SDS011;62150;43.582;1.456;2024-02-26T15:48:35;1.30;;;1.20;;
17496;SDS011;62150;43.582;1.456;2024-02-26T15:51:03;2.17;;;1.17;;
17496;SDS011;62150;43.582;1.456;2024-02-26T15:53:31;1.83;;;1.27;;
17496;SDS011;62150;43.582;1.456;2024-02-26T15:55:58;2.40;;;1.10;;
17496;SDS011;62150;43.582;1.456;2024-02-26T15:58:27;1.57;;;1.10;;
17496;SDS011;62150;43.582;1.456;2024-02-26T16:00:55;1.57;;;0.70;;
17496;SDS011;62150;43.582;1.456;2024-02-26T16:03:22;1.40;;;1.00;;
17496;SDS011;62150;43.582;1.456;2024-02-26T16:05:50;1.47;;;0.90;;
17496;SDS011;62150;43.582;1.456;2024-02-26T16:08:19;1.67;;;0.83;;
17496;SDS011;62150;43.582;1.456;2024-02-26T16:10:49;0.83;;;0.73;;
17496;SDS011;62150;43.582;1.456;2024-02-26T16:13:17;1.50;;;0.80;;
17496;SDS011;62150;43.582;1.456;2024-02-26T16:15:47;0.80;;;0.80;;
17496;SDS011;62150;43.582;1.456;2024-02-26T16:18:17;0.70;;;0.70;;
17496;SDS011;62150;43.582;1.456;2024-02-26T16:20:45;1.80;;;0.80;;
17496;SDS011;62150;43.582;1.456;2024-02-26T16:23:13;0.60;;;0.60;;
17496;SDS011;62150;43.582;1.456;2024-02-26T16:25:41;0.70;;;0.70;;
17496;SDS011;62150;43.582;1.456;2024-02-26T16:28:08;0.80;;;0.80;;
17496;SDS011;62150;43.582;1.456;2024-02-26T16:30:36;1.20;;;1.00;;
17496;SDS011;62150;43.582;1.456;2024-02-26T16:33:04;2.23;;;0.80;;
17496;SDS011;62150;43.582;1.456;2024-02-26T16:35:32;1.37;;;0.83;;
17496;SDS011;62150;43.582;1.456;2024-02-26T16:38:00;1.03;;;0.80;;
17496;SDS011;62150;43.582;1.456;2024-02-26T16:40:27;1.10;;;1.00;;
17496;SDS011;62150;43.582;1.456;2024-02-26T16:42:55;0.83;;;0.83;;
17496;SDS011;62150;43.582;1.456;2024-02-26T16:45:23;1.07;;;0.97;;
17496;SDS011;62150;43.582;1.456;2024-02-26T16:47:51;0.80;;;0.80;;
17496;SDS011;62150;43.582;1.456;2024-02-26T16:50:20;0.73;;;0.70;;
17496;SDS011;62150;43.582;1.456;2024-02-26T16:52:48;1.40;;;0.90;;
17496;SDS011;62150;43.582;1.456;2024-02-26T16:55:15;1.10;;;1.00;;
17496;SDS011;62150;43.582;1.456;2024-02-26T16:57:43;0.70;;;0.70;;
17496;SDS011;62150;43.582;1.456;2024-02-26T17:00:11;0.60;;;0.60;;
17496;SDS011;62150;43.582;1.456;2024-02-26T17:02:41;1.73;;;1.10;;
17496;SDS011;62150;43.582;1.456;2024-02-26T17:05:10;1.27;;;1.00;;
17496;SDS011;62150;43.582;1.456;2024-02-26T17:07:40;2.47;;;1.10;;
17496;SDS011;62150;43.582;1.456;2024-02-26T17:10:09;1.30;;;0.90;;
17496;SDS011;62150;43.582;1.456;2024-02-26T17:12:37;0.90;;;0.90;;
17496;SDS011;62150;43.582;1.456;2024-02-26T17:15:05;1.50;;;0.97;;
17496;SDS011;62150;43.582;1.456;2024-02-26T17:17:34;1.00;;;0.90;;
17496;SDS011;62150;43.582;1.456;2024-02-26T17:20:02;0.73;;;0.73;;
17496;SDS011;62150;43.582;1.456;2024-02-26T17:22:30;1.33;;;0.90;;
17496;SDS011;62150;43.582;1.456;2024-02-26T17:24:59;1.00;;;0.80;;
17496;SDS011;62150;43.582;1.456;2024-02-26T17:27:26;1.27;;;1.17;;
17496;SDS011;62150;43.582;1.456;2024-02-26T17:29:55;0.80;;;0.80;;
17496;SDS011;62150;43.582;1.456;2024-02-26T17:32:22;1.43;;;1.10;;
17496;SDS011;62150;43.582;1.456;2024-02-26T17:34:50;2.40;;;1.40;;
17496;SDS011;62150;43.582;1.456;2024-02-26T17:37:18;1.10;;;1.00;;
17496;SDS011;62150;43.582;1.456;2024-02-26T17:39:46;1.50;;;1.30;;
17496;SDS011;62150;43.582;1.456;2024-02-26T17:42:14;2.00;;;1.23;;
17496;SDS011;62150;43.582;1.456;2024-02-26T17:44:42;2.80;;;1.37;;
17496;SDS011;62150;43.582;1.456;2024-02-26T17:47:10;1.53;;;1.30;;
17496;SDS011;62150;43.582;1.456;2024-02-26T17:49:38;1.93;;;1.47;;
17496;SDS011;62150;43.582;1.456;2024-02-26T17:52:06;2.57;;;1.63;;
17496;SDS011;62150;43.582;1.456;2024-02-26T17:54:34;2.63;;;1.70;;
17496;SDS011;62150;43.582;1.456;2024-02-26T17:57:01;2.53;;;1.80;;
17496;SDS011;62150;43.582;1.456;2024-02-26T17:59:32;3.90;;;2.40;;
17496;SDS011;62150;43.582;1.456;2024-02-26T18:02:00;3.13;;;1.77;;
17496;SDS011;62150;43.582;1.456;2024-02-26T18:04:27;4.23;;;2.00;;
17496;SDS011;62150;43.582;1.456;2024-02-26T18:06:55;1.87;;;1.50;;
17496;SDS011;62150;43.582;1.456;2024-02-26T18:09:23;3.37;;;2.00;;
17496;SDS011;62150;43.582;1.456;2024-02-26T18:11:51;2.93;;;1.87;;
17496;SDS011;62150;43.582;1.456;2024-02-26T18:14:20;3.47;;;1.70;;
17496;SDS011;62150;43.582;1.456;2024-02-26T18:16:49;3.23;;;1.80;;
17496;SDS011;62150;43.582;1.456;2024-02-26T18:19:17;3.90;;;1.90;;
17496;SDS011;62150;43.582;1.456;2024-02-26T18:21:44;2.80;;;1.90;;
17496;SDS011;62150;43.582;1.456;2024-02-26T18:24:12;1.87;;;1.57;;
17496;SDS011;62150;43.582;1.456;2024-02-26T18:26:41;4.00;;;2.00;;
17496;SDS011;62150;43.582;1.456;2024-02-26T18:29:08;2.73;;;1.60;;
17496;SDS011;62150;43.582;1.456;2024-02-26T18:31:36;1.60;;;1.40;;
17496;SDS011;62150;43.582;1.456;2024-02-26T18:34:06;3.17;;;1.73;;
17496;SDS011;62150;43.582;1.456;2024-02-26T18:36:41;2.20;;;1.60;;
17496;SDS011;62150;43.582;1.456;2024-02-26T18:39:09;2.57;;;1.40;;
17496;SDS011;62150;43.582;1.456;2024-02-26T18:41:37;3.53;;;1.80;;
17496;SDS011;62150;43.582;1.456;2024-02-26T18:44:04;3.23;;;1.57;;
17496;SDS011;62150;43.582;1.456;2024-02-26T18:46:32;3.80;;;2.10;;
17496;SDS011;62150;43.582;1.456;2024-02-26T18:49:00;3.67;;;1.97;;
17496;SDS011;62150;43.582;1.456;2024-02-26T18:51:28;5.37;;;2.00;;
17496;SDS011;62150;43.582;1.456;2024-02-26T18:53:56;3.73;;;2.20;;
17496;SDS011;62150;43.582;1.456;2024-02-26T18:56:23;3.30;;;1.97;;
17496;SDS011;62150;43.582;1.456;2024-02-26T18:58:51;2.93;;;1.80;;
17496;SDS011;62150;43.582;1.456;2024-02-26T19:01:18;4.40;;;2.07;;
17496;SDS011;62150;43.582;1.456;2024-02-26T19:03:46;6.87;;;2.60;;
17496;SDS011;62150;43.582;1.456;2024-02-26T19:06:14;4.60;;;2.40;;
17496;SDS011;62150;43.582;1.456;2024-02-26T19:08:43;3.93;;;2.03;;
17496;SDS011;62150;43.582;1.456;2024-02-26T19:11:10;5.10;;;2.37;;
17496;SDS011;62150;43.582;1.456;2024-02-26T19:13:38;5.80;;;2.00;;
17496;SDS011;62150;43.582;1.456;2024-02-26T19:16:05;5.53;;;2.30;;
17496;SDS011;62150;43.582;1.456;2024-02-26T19:18:33;4.27;;;2.40;;
17496;SDS011;62150;43.582;1.456;2024-02-26T19:21:01;4.03;;;1.73;;
17496;SDS011;62150;43.582;1.456;2024-02-26T19:23:29;5.80;;;2.13;;
17496;SDS011;62150;43.582;1.456;2024-02-26T19:26:00;4.13;;;2.10;;
17496;SDS011;62150;43.582;1.456;2024-02-26T19:28:28;5.47;;;2.00;;
17496;SDS011;62150;43.582;1.456;2024-02-26T19:30:56;3.67;;;1.73;;
17496;SDS011;62150;43.582;1.456;2024-02-26T19:33:24;5.47;;;2.17;;
17496;SDS011;62150;43.582;1.456;2024-02-26T19:35:53;6.80;;;2.30;;
17496;SDS011;62150;43.582;1.456;2024-02-26T19:38:21;6.77;;;2.77;;
17496;SDS011;62150;43.582;1.456;2024-02-26T19:43:18;5.30;;;2.40;;